首页
METAR-TAF:

METAR-TAF

机场 :

Land's End, 英格兰

纬度: 50-06-10N, 经度: 005-40-14W, 海拔: 122米

当前天气观测

该预报发布于1小时和55分钟前的15:20 UTC
风速7节,风向西转西南
温度 20°C
湿度 60%
气压 1022 hPa
能见度10公里或以上
少量云层高于3500英尺

METAR: EGHC 011520Z 25007KT 9999 FEW035 20/12 Q1022

时间: 18:15 (17:15 UTC)

预报

该预报发布于9小时和16分钟前的07:59 UTC
预报有效从01日的 09点(UTC)到 01日的 16点(UTC)
风速12节,风向
能见度10公里或以上
1500米以下无云,无积雨云
短暂存在
从 01日的 14点(UTC)到 01日的 16点(UTC)
风速3节,风向南转南东

TAF: EGHC 010759Z 0109/0116 09012KT CAVOK TEMPO 0114/0116 16003KT

超过4000个机场的气象观测和天气预报(METAR&TAF报告)。

可查询的气象台以黄色和红色小点在地图上表示。

将鼠标移到小点上方,可查看气象台名称。

然后点击查看天气观测和预报。

如需切换地图:点击带黑十字的绿色按钮放大地图;点击带横线的绿色按钮缩小地图;或者点击绿色箭头查看邻近地区的地图。


METAR-TAF: